Kawasaki, Japan
Current Conditions -  °F | °C
As of 4:00 PM on Sunday 26 Oct 2014 (Local Time) from RJTT Reporting Station
Broken Clouds Broken Clouds  
Wind Chill: 73°   Ceiling: Unl
Heat Index: 73°   Visibility: 6mi
Dew Point: 63°   Wind: 12mph
Humidity: 69%   Direction: 180°S
Pressure: 30.03"   Gusts: NA
Location:  35.53°N, 139.7°E
Report Text: RJTT 260700Z 18010KT 9999 FEW020 BKN/// 23/17 Q1017 NOSIG
Loading
Personal Weather Stations






























Interactive Weather Map
Tropical Storm Tracking
New forecast layout! Learn more

10-Day Weather Forecast

Advertisements
Track Severe Weather on mobile